sensor_id;sensor_type;location;lat;lon;timestamp;P1;durP1;ratioP1;P2;durP2;ratioP2
21754;SDS011;11039;50.028;19.938;2023-04-03T00:01:36;2.58;;;1.10;;
21754;SDS011;11039;50.028;19.938;2023-04-03T00:04:03;1.48;;;0.90;;
21754;SDS011;11039;50.028;19.938;2023-04-03T00:06:30;1.35;;;1.10;;
21754;SDS011;11039;50.028;19.938;2023-04-03T00:08:56;2.38;;;1.20;;
21754;SDS011;11039;50.028;19.938;2023-04-03T00:11:22;2.05;;;0.90;;
21754;SDS011;11039;50.028;19.938;2023-04-03T00:13:48;1.55;;;0.90;;
21754;SDS011;11039;50.028;19.938;2023-04-03T00:16:14;1.60;;;1.08;;
21754;SDS011;11039;50.028;19.938;2023-04-03T00:18:40;2.30;;;1.15;;
21754;SDS011;11039;50.028;19.938;2023-04-03T00:21:06;1.48;;;0.90;;
21754;SDS011;11039;50.028;19.938;2023-04-03T00:23:33;1.25;;;0.90;;
21754;SDS011;11039;50.028;19.938;2023-04-03T00:25:59;1.80;;;1.00;;
21754;SDS011;11039;50.028;19.938;2023-04-03T00:28:26;1.63;;;0.88;;
21754;SDS011;11039;50.028;19.938;2023-04-03T00:30:52;1.60;;;1.10;;
21754;SDS011;11039;50.028;19.938;2023-04-03T00:33:18;1.10;;;1.00;;
21754;SDS011;11039;50.028;19.938;2023-04-03T00:35:48;1.17;;;0.90;;
21754;SDS011;11039;50.028;19.938;2023-04-03T00:38:14;1.40;;;0.90;;
21754;SDS011;11039;50.028;19.938;2023-04-03T00:40:42;1.17;;;0.80;;
21754;SDS011;11039;50.028;19.938;2023-04-03T00:43:12;1.30;;;0.90;;
21754;SDS011;11039;50.028;19.938;2023-04-03T00:45:39;1.02;;;0.90;;
21754;SDS011;11039;50.028;19.938;2023-04-03T00:48:07;1.05;;;0.88;;
21754;SDS011;11039;50.028;19.938;2023-04-03T00:50:34;1.17;;;0.75;;
21754;SDS011;11039;50.028;19.938;2023-04-03T00:53:01;1.15;;;0.77;;
21754;SDS011;11039;50.028;19.938;2023-04-03T00:55:27;1.00;;;0.90;;
21754;SDS011;11039;50.028;19.938;2023-04-03T00:57:53;1.13;;;0.93;;
21754;SDS011;11039;50.028;19.938;2023-04-03T01:00:21;1.20;;;0.85;;
21754;SDS011;11039;50.028;19.938;2023-04-03T01:02:49;1.48;;;0.90;;
21754;SDS011;11039;50.028;19.938;2023-04-03T01:05:15;1.00;;;0.90;;
21754;SDS011;11039;50.028;19.938;2023-04-03T01:07:42;1.40;;;0.90;;
21754;SDS011;11039;50.028;19.938;2023-04-03T01:10:09;1.05;;;0.85;;
21754;SDS011;11039;50.028;19.938;2023-04-03T01:12:36;1.13;;;1.00;;
21754;SDS011;11039;50.028;19.938;2023-04-03T01:15:07;1.40;;;0.90;;
21754;SDS011;11039;50.028;19.938;2023-04-03T01:17:41;1.00;;;0.77;;
21754;SDS011;11039;50.028;19.938;2023-04-03T01:25:18;1.15;;;1.00;;
21754;SDS011;11039;50.028;19.938;2023-04-03T01:27:44;1.42;;;1.00;;
21754;SDS011;11039;50.028;19.938;2023-04-03T01:30:10;1.13;;;0.90;;
21754;SDS011;11039;50.028;19.938;2023-04-03T01:32:36;1.30;;;0.90;;
21754;SDS011;11039;50.028;19.938;2023-04-03T01:35:02;1.30;;;0.93;;
21754;SDS011;11039;50.028;19.938;2023-04-03T01:37:28;1.73;;;1.08;;
21754;SDS011;11039;50.028;19.938;2023-04-03T01:39:54;1.40;;;0.70;;
21754;SDS011;11039;50.028;19.938;2023-04-03T01:42:20;1.00;;;0.82;;
21754;SDS011;11039;50.028;19.938;2023-04-03T01:44:46;1.13;;;0.80;;
21754;SDS011;11039;50.028;19.938;2023-04-03T01:47:13;1.30;;;0.90;;
21754;SDS011;11039;50.028;19.938;2023-04-03T01:49:39;1.08;;;0.90;;
21754;SDS011;11039;50.028;19.938;2023-04-03T01:52:05;1.20;;;0.68;;
21754;SDS011;11039;50.028;19.938;2023-04-03T01:54:31;0.98;;;0.80;;
21754;SDS011;11039;50.028;19.938;2023-04-03T01:56:57;1.25;;;0.80;;
21754;SDS011;11039;50.028;19.938;2023-04-03T01:59:23;1.35;;;0.73;;
21754;SDS011;11039;50.028;19.938;2023-04-03T02:01:49;1.30;;;0.90;;
21754;SDS011;11039;50.028;19.938;2023-04-03T02:04:15;1.05;;;0.73;;
21754;SDS011;11039;50.028;19.938;2023-04-03T02:06:41;0.93;;;0.70;;
21754;SDS011;11039;50.028;19.938;2023-04-03T02:09:07;1.20;;;0.80;;
21754;SDS011;11039;50.028;19.938;2023-04-03T02:11:33;0.95;;;0.70;;
21754;SDS011;11039;50.028;19.938;2023-04-03T02:14:00;0.95;;;0.70;;
21754;SDS011;11039;50.028;19.938;2023-04-03T02:16:26;0.80;;;0.60;;
21754;SDS011;11039;50.028;19.938;2023-04-03T02:18:53;0.80;;;0.70;;
21754;SDS011;11039;50.028;19.938;2023-04-03T02:21:19;1.75;;;0.90;;
21754;SDS011;11039;50.028;19.938;2023-04-03T02:23:45;0.90;;;0.70;;
21754;SDS011;11039;50.028;19.938;2023-04-03T02:26:12;0.80;;;0.70;;
21754;SDS011;11039;50.028;19.938;2023-04-03T02:28:38;0.75;;;0.60;;
21754;SDS011;11039;50.028;19.938;2023-04-03T02:31:06;0.80;;;0.68;;
21754;SDS011;11039;50.028;19.938;2023-04-03T02:33:32;1.00;;;0.70;;
21754;SDS011;11039;50.028;19.938;2023-04-03T02:35:58;1.77;;;1.17;;
21754;SDS011;11039;50.028;19.938;2023-04-03T02:38:25;0.70;;;0.60;;
21754;SDS011;11039;50.028;19.938;2023-04-03T02:40:51;1.35;;;0.95;;
21754;SDS011;11039;50.028;19.938;2023-04-03T02:43:17;3.50;;;0.90;;
21754;SDS011;11039;50.028;19.938;2023-04-03T02:45:43;1.13;;;0.80;;
21754;SDS011;11039;50.028;19.938;2023-04-03T02:48:09;0.98;;;0.77;;
21754;SDS011;11039;50.028;19.938;2023-04-03T02:50:35;1.02;;;0.60;;
21754;SDS011;11039;50.028;19.938;2023-04-03T02:53:01;1.02;;;0.90;;
21754;SDS011;11039;50.028;19.938;2023-04-03T02:55:27;1.55;;;0.70;;
21754;SDS011;11039;50.028;19.938;2023-04-03T02:57:53;1.00;;;0.80;;
21754;SDS011;11039;50.028;19.938;2023-04-03T03:00:20;1.23;;;0.77;;
21754;SDS011;11039;50.028;19.938;2023-04-03T03:02:46;1.08;;;0.90;;
21754;SDS011;11039;50.028;19.938;2023-04-03T03:05:12;0.93;;;0.73;;
21754;SDS011;11039;50.028;19.938;2023-04-03T03:07:38;1.23;;;0.90;;
21754;SDS011;11039;50.028;19.938;2023-04-03T03:10:04;0.90;;;0.77;;
21754;SDS011;11039;50.028;19.938;2023-04-03T03:12:30;1.20;;;0.70;;
21754;SDS011;11039;50.028;19.938;2023-04-03T03:14:56;1.42;;;0.90;;
21754;SDS011;11039;50.028;19.938;2023-04-03T03:17:22;1.27;;;0.70;;
21754;SDS011;11039;50.028;19.938;2023-04-03T03:19:48;0.77;;;0.60;;
21754;SDS011;11039;50.028;19.938;2023-04-03T03:22:15;0.98;;;0.70;;
21754;SDS011;11039;50.028;19.938;2023-04-03T03:24:41;0.82;;;0.75;;
21754;SDS011;11039;50.028;19.938;2023-04-03T03:27:07;1.05;;;0.75;;
21754;SDS011;11039;50.028;19.938;2023-04-03T03:29:33;1.92;;;0.63;;
21754;SDS011;11039;50.028;19.938;2023-04-03T03:31:59;0.98;;;0.70;;
21754;SDS011;11039;50.028;19.938;2023-04-03T03:34:26;0.85;;;0.57;;
21754;SDS011;11039;50.028;19.938;2023-04-03T03:36:52;1.23;;;0.85;;
21754;SDS011;11039;50.028;19.938;2023-04-03T03:39:18;1.15;;;0.80;;
21754;SDS011;11039;50.028;19.938;2023-04-03T03:41:44;0.90;;;0.70;;
21754;SDS011;11039;50.028;19.938;2023-04-03T03:44:10;0.95;;;0.70;;
21754;SDS011;11039;50.028;19.938;2023-04-03T03:46:36;2.53;;;0.70;;
21754;SDS011;11039;50.028;19.938;2023-04-03T03:49:02;1.02;;;0.70;;
21754;SDS011;11039;50.028;19.938;2023-04-03T03:51:28;1.95;;;0.80;;
21754;SDS011;11039;50.028;19.938;2023-04-03T03:53:54;0.50;;;0.50;;
21754;SDS011;11039;50.028;19.938;2023-04-03T03:56:20;0.85;;;0.50;;
21754;SDS011;11039;50.028;19.938;2023-04-03T03:58:46;1.45;;;0.85;;
21754;SDS011;11039;50.028;19.938;2023-04-03T04:01:12;1.58;;;0.80;;
21754;SDS011;11039;50.028;19.938;2023-04-03T04:03:38;1.05;;;0.75;;
21754;SDS011;11039;50.028;19.938;2023-04-03T04:06:04;0.95;;;0.60;;
21754;SDS011;11039;50.028;19.938;2023-04-03T04:08:30;0.80;;;0.60;;
21754;SDS011;11039;50.028;19.938;2023-04-03T04:10:56;0.85;;;0.60;;
21754;SDS011;11039;50.028;19.938;2023-04-03T04:13:23;1.00;;;0.60;;
21754;SDS011;11039;50.028;19.938;2023-04-03T04:15:49;0.80;;;0.65;;
21754;SDS011;11039;50.028;19.938;2023-04-03T04:18:15;0.85;;;0.63;;
21754;SDS011;11039;50.028;19.938;2023-04-03T04:20:44;2.03;;;0.65;;
21754;SDS011;11039;50.028;19.938;2023-04-03T04:23:10;1.92;;;0.70;;
21754;SDS011;11039;50.028;19.938;2023-04-03T04:25:36;0.90;;;0.70;;
21754;SDS011;11039;50.028;19.938;2023-04-03T04:28:02;0.80;;;0.60;;
21754;SDS011;11039;50.028;19.938;2023-04-03T04:30:28;1.50;;;0.70;;
21754;SDS011;11039;50.028;19.938;2023-04-03T04:32:54;1.52;;;0.70;;
21754;SDS011;11039;50.028;19.938;2023-04-03T04:35:21;0.82;;;0.68;;
21754;SDS011;11039;50.028;19.938;2023-04-03T04:37:47;1.15;;;0.80;;
21754;SDS011;11039;50.028;19.938;2023-04-03T04:40:13;1.42;;;0.80;;
21754;SDS011;11039;50.028;19.938;2023-04-03T04:42:39;1.13;;;0.70;;
21754;SDS011;11039;50.028;19.938;2023-04-03T04:45:05;1.50;;;0.80;;
21754;SDS011;11039;50.028;19.938;2023-04-03T04:47:32;1.10;;;0.55;;
21754;SDS011;11039;50.028;19.938;2023-04-03T04:49:58;1.98;;;0.90;;
21754;SDS011;11039;50.028;19.938;2023-04-03T04:52:24;0.90;;;0.70;;
21754;SDS011;11039;50.028;19.938;2023-04-03T04:54:50;0.77;;;0.63;;
21754;SDS011;11039;50.028;19.938;2023-04-03T04:57:16;2.45;;;0.80;;
21754;SDS011;11039;50.028;19.938;2023-04-03T04:59:42;2.58;;;0.63;;
21754;SDS011;11039;50.028;19.938;2023-04-03T05:02:08;1.13;;;0.80;;
21754;SDS011;11039;50.028;19.938;2023-04-03T05:04:34;1.15;;;0.70;;
21754;SDS011;11039;50.028;19.938;2023-04-03T05:07:00;1.45;;;0.85;;
21754;SDS011;11039;50.028;19.938;2023-04-03T05:09:26;1.80;;;0.68;;
21754;SDS011;11039;50.028;19.938;2023-04-03T05:11:52;1.70;;;0.60;;
21754;SDS011;11039;50.028;19.938;2023-04-03T05:14:18;3.13;;;0.63;;
21754;SDS011;11039;50.028;19.938;2023-04-03T05:16:45;3.95;;;0.85;;
21754;SDS011;11039;50.028;19.938;2023-04-03T05:19:12;3.70;;;0.85;;
21754;SDS011;11039;50.028;19.938;2023-04-03T05:21:38;1.73;;;0.70;;
21754;SDS011;11039;50.028;19.938;2023-04-03T05:24:04;0.95;;;0.60;;
21754;SDS011;11039;50.028;19.938;2023-04-03T05:26:34;1.08;;;0.75;;
21754;SDS011;11039;50.028;19.938;2023-04-03T05:29:00;1.30;;;0.90;;
21754;SDS011;11039;50.028;19.938;2023-04-03T05:31:26;1.65;;;1.00;;
21754;SDS011;11039;50.028;19.938;2023-04-03T05:33:54;1.55;;;0.80;;
21754;SDS011;11039;50.028;19.938;2023-04-03T05:36:20;1.13;;;0.68;;
21754;SDS011;11039;50.028;19.938;2023-04-03T05:38:46;0.98;;;0.70;;
21754;SDS011;11039;50.028;19.938;2023-04-03T05:41:13;1.08;;;0.70;;
21754;SDS011;11039;50.028;19.938;2023-04-03T05:43:39;0.85;;;0.73;;
21754;SDS011;11039;50.028;19.938;2023-04-03T05:46:12;1.25;;;0.70;;
21754;SDS011;11039;50.028;19.938;2023-04-03T05:48:38;1.08;;;0.77;;
21754;SDS011;11039;50.028;19.938;2023-04-03T05:51:05;2.35;;;0.93;;
21754;SDS011;11039;50.028;19.938;2023-04-03T05:53:31;0.80;;;0.60;;
21754;SDS011;11039;50.028;19.938;2023-04-03T05:55:58;1.35;;;0.90;;
21754;SDS011;11039;50.028;19.938;2023-04-03T05:58:25;1.70;;;0.77;;
21754;SDS011;11039;50.028;19.938;2023-04-03T06:00:51;1.00;;;0.77;;
21754;SDS011;11039;50.028;19.938;2023-04-03T06:03:17;1.80;;;0.90;;
21754;SDS011;11039;50.028;19.938;2023-04-03T06:05:43;1.45;;;0.98;;
21754;SDS011;11039;50.028;19.938;2023-04-03T06:08:09;1.63;;;0.90;;
21754;SDS011;11039;50.028;19.938;2023-04-03T06:10:35;0.85;;;0.70;;
21754;SDS011;11039;50.028;19.938;2023-04-03T06:13:01;3.50;;;0.90;;
21754;SDS011;11039;50.028;19.938;2023-04-03T06:15:27;2.22;;;0.85;;
21754;SDS011;11039;50.028;19.938;2023-04-03T06:17:54;1.73;;;0.90;;
21754;SDS011;11039;50.028;19.938;2023-04-03T06:20:20;1.40;;;1.10;;
21754;SDS011;11039;50.028;19.938;2023-04-03T06:22:47;2.05;;;1.00;;
21754;SDS011;11039;50.028;19.938;2023-04-03T06:25:13;2.95;;;0.90;;
21754;SDS011;11039;50.028;19.938;2023-04-03T06:27:39;1.77;;;0.85;;
21754;SDS011;11039;50.028;19.938;2023-04-03T06:30:06;1.52;;;0.70;;
21754;SDS011;11039;50.028;19.938;2023-04-03T06:32:32;2.15;;;0.98;;
21754;SDS011;11039;50.028;19.938;2023-04-03T06:34:58;1.15;;;0.93;;
21754;SDS011;11039;50.028;19.938;2023-04-03T06:37:25;5.38;;;1.05;;
21754;SDS011;11039;50.028;19.938;2023-04-03T06:39:51;3.47;;;1.60;;
21754;SDS011;11039;50.028;19.938;2023-04-03T06:42:17;2.78;;;1.60;;
21754;SDS011;11039;50.028;19.938;2023-04-03T06:44:43;7.10;;;2.08;;
21754;SDS011;11039;50.028;19.938;2023-04-03T06:47:11;5.30;;;1.90;;
21754;SDS011;11039;50.028;19.938;2023-04-03T06:49:37;2.75;;;1.70;;
21754;SDS011;11039;50.028;19.938;2023-04-03T06:52:03;3.67;;;1.67;;
21754;SDS011;11039;50.028;19.938;2023-04-03T06:54:30;3.20;;;1.70;;
21754;SDS011;11039;50.028;19.938;2023-04-03T06:56:56;3.20;;;1.90;;
21754;SDS011;11039;50.028;19.938;2023-04-03T06:59:22;2.35;;;1.42;;
21754;SDS011;11039;50.028;19.938;2023-04-03T07:01:48;3.75;;;1.73;;
21754;SDS011;11039;50.028;19.938;2023-04-03T07:04:14;2.85;;;1.70;;
21754;SDS011;11039;50.028;19.938;2023-04-03T07:06:41;5.03;;;1.77;;
21754;SDS011;11039;50.028;19.938;2023-04-03T07:09:08;3.65;;;1.80;;
21754;SDS011;11039;50.028;19.938;2023-04-03T07:11:34;6.68;;;2.22;;
21754;SDS011;11039;50.028;19.938;2023-04-03T07:14:01;3.35;;;1.88;;
21754;SDS011;11039;50.028;19.938;2023-04-03T07:16:27;3.40;;;1.85;;
21754;SDS011;11039;50.028;19.938;2023-04-03T07:18:55;4.00;;;2.00;;
21754;SDS011;11039;50.028;19.938;2023-04-03T07:21:22;2.80;;;1.75;;
21754;SDS011;11039;50.028;19.938;2023-04-03T07:23:48;4.15;;;1.80;;
21754;SDS011;11039;50.028;19.938;2023-04-03T07:26:14;4.07;;;2.35;;
21754;SDS011;11039;50.028;19.938;2023-04-03T07:28:40;2.55;;;1.77;;
21754;SDS011;11039;50.028;19.938;2023-04-03T07:31:07;3.97;;;2.00;;
21754;SDS011;11039;50.028;19.938;2023-04-03T07:33:36;3.15;;;1.67;;
21754;SDS011;11039;50.028;19.938;2023-04-03T07:36:02;3.92;;;1.95;;
21754;SDS011;11039;50.028;19.938;2023-04-03T07:38:28;3.53;;;1.60;;
21754;SDS011;11039;50.028;19.938;2023-04-03T07:40:54;4.35;;;1.88;;
21754;SDS011;11039;50.028;19.938;2023-04-03T07:43:21;3.58;;;1.63;;
21754;SDS011;11039;50.028;19.938;2023-04-03T07:45:48;3.25;;;1.85;;
21754;SDS011;11039;50.028;19.938;2023-04-03T07:48:16;4.82;;;1.77;;
21754;SDS011;11039;50.028;19.938;2023-04-03T07:50:43;3.65;;;1.90;;
21754;SDS011;11039;50.028;19.938;2023-04-03T07:53:09;4.93;;;1.88;;
21754;SDS011;11039;50.028;19.938;2023-04-03T07:55:35;3.72;;;1.67;;
21754;SDS011;11039;50.028;19.938;2023-04-03T07:58:08;3.75;;;1.65;;
21754;SDS011;11039;50.028;19.938;2023-04-03T08:00:34;3.60;;;1.73;;
21754;SDS011;11039;50.028;19.938;2023-04-03T08:03:00;3.08;;;1.45;;
21754;SDS011;11039;50.028;19.938;2023-04-03T08:05:27;2.75;;;1.70;;
21754;SDS011;11039;50.028;19.938;2023-04-03T08:07:53;3.38;;;1.50;;
21754;SDS011;11039;50.028;19.938;2023-04-03T08:10:19;3.83;;;1.40;;
21754;SDS011;11039;50.028;19.938;2023-04-03T08:12:46;3.15;;;1.55;;
21754;SDS011;11039;50.028;19.938;2023-04-03T08:15:12;2.80;;;1.30;;
21754;SDS011;11039;50.028;19.938;2023-04-03T08:17:38;3.67;;;1.42;;
21754;SDS011;11039;50.028;19.938;2023-04-03T08:20:04;3.53;;;1.38;;
21754;SDS011;11039;50.028;19.938;2023-04-03T08:22:31;2.47;;;1.35;;
21754;SDS011;11039;50.028;19.938;2023-04-03T08:24:58;2.40;;;1.40;;
21754;SDS011;11039;50.028;19.938;2023-04-03T08:27:24;2.28;;;1.60;;
21754;SDS011;11039;50.028;19.938;2023-04-03T08:29:51;3.05;;;1.58;;
21754;SDS011;11039;50.028;19.938;2023-04-03T08:32:17;2.92;;;1.60;;
21754;SDS011;11039;50.028;19.938;2023-04-03T08:34:44;1.55;;;1.00;;
21754;SDS011;11039;50.028;19.938;2023-04-03T08:37:11;2.55;;;1.50;;
21754;SDS011;11039;50.028;19.938;2023-04-03T08:39:37;3.45;;;1.60;;
21754;SDS011;11039;50.028;19.938;2023-04-03T08:42:05;1.92;;;1.17;;
21754;SDS011;11039;50.028;19.938;2023-04-03T08:44:42;3.05;;;1.50;;
21754;SDS011;11039;50.028;19.938;2023-04-03T08:47:25;4.25;;;1.40;;
21754;SDS011;11039;50.028;19.938;2023-04-03T08:50:02;2.25;;;1.25;;
21754;SDS011;11039;50.028;19.938;2023-04-03T08:52:41;2.60;;;1.40;;
21754;SDS011;11039;50.028;19.938;2023-04-03T08:58:09;3.40;;;1.20;;
21754;SDS011;11039;50.028;19.938;2023-04-03T09:00:53;1.90;;;1.20;;
21754;SDS011;11039;50.028;19.938;2023-04-03T09:03:20;3.00;;;1.50;;
21754;SDS011;11039;50.028;19.938;2023-04-03T09:05:51;3.28;;;1.92;;
21754;SDS011;11039;50.028;19.938;2023-04-03T09:10:48;4.97;;;2.50;;
21754;SDS011;11039;50.028;19.938;2023-04-03T09:13:24;4.40;;;2.70;;
21754;SDS011;11039;50.028;19.938;2023-04-03T09:15:54;6.63;;;2.50;;
21754;SDS011;11039;50.028;19.938;2023-04-03T09:18:23;5.88;;;2.80;;
21754;SDS011;11039;50.028;19.938;2023-04-03T09:25:49;4.32;;;2.13;;
21754;SDS011;11039;50.028;19.938;2023-04-03T09:28:16;4.75;;;1.73;;
21754;SDS011;11039;50.028;19.938;2023-04-03T09:30:42;3.72;;;2.05;;
21754;SDS011;11039;50.028;19.938;2023-04-03T09:33:08;3.92;;;1.75;;
21754;SDS011;11039;50.028;19.938;2023-04-03T09:35:36;3.08;;;1.80;;
21754;SDS011;11039;50.028;19.938;2023-04-03T09:40:48;4.43;;;2.03;;
21754;SDS011;11039;50.028;19.938;2023-04-03T09:43:23;3.53;;;1.83;;
21754;SDS011;11039;50.028;19.938;2023-04-03T09:45:50;3.03;;;1.70;;
21754;SDS011;11039;50.028;19.938;2023-04-03T09:48:21;4.15;;;1.20;;
21754;SDS011;11039;50.028;19.938;2023-04-03T09:55:55;3.53;;;1.50;;
21754;SDS011;11039;50.028;19.938;2023-04-03T09:58:28;3.38;;;1.52;;
21754;SDS011;11039;50.028;19.938;2023-04-03T10:00:58;2.40;;;1.30;;
21754;SDS011;11039;50.028;19.938;2023-04-03T10:03:27;3.10;;;1.55;;
21754;SDS011;11039;50.028;19.938;2023-04-03T10:05:53;3.13;;;1.55;;
21754;SDS011;11039;50.028;19.938;2023-04-03T10:08:27;3.45;;;1.42;;
21754;SDS011;11039;50.028;19.938;2023-04-03T10:13:33;3.83;;;1.48;;
21754;SDS011;11039;50.028;19.938;2023-04-03T10:16:04;2.33;;;1.38;;
21754;SDS011;11039;50.028;19.938;2023-04-03T10:18:38;3.38;;;1.33;;
21754;SDS011;11039;50.028;19.938;2023-04-03T10:21:26;2.30;;;1.35;;
21754;SDS011;11039;50.028;19.938;2023-04-03T10:34:37;2.65;;;1.33;;
21754;SDS011;11039;50.028;19.938;2023-04-03T10:39:39;1.60;;;1.17;;
21754;SDS011;11039;50.028;19.938;2023-04-03T10:47:09;2.45;;;1.15;;
21754;SDS011;11039;50.028;19.938;2023-04-03T10:52:22;2.50;;;1.05;;
21754;SDS011;11039;50.028;19.938;2023-04-03T10:57:33;1.80;;;1.00;;
21754;SDS011;11039;50.028;19.938;2023-04-03T11:00:02;2.80;;;1.15;;
21754;SDS011;11039;50.028;19.938;2023-04-03T11:05:05;3.10;;;1.30;;
21754;SDS011;11039;50.028;19.938;2023-04-03T11:07:39;2.47;;;1.20;;
21754;SDS011;11039;50.028;19.938;2023-04-03T11:10:11;3.30;;;1.23;;
21754;SDS011;11039;50.028;19.938;2023-04-03T11:12:43;1.73;;;1.00;;
21754;SDS011;11039;50.028;19.938;2023-04-03T11:15:15;2.92;;;1.30;;
21754;SDS011;11039;50.028;19.938;2023-04-03T11:17:43;2.17;;;1.42;;
21754;SDS011;11039;50.028;19.938;2023-04-03T11:20:19;1.60;;;1.13;;
21754;SDS011;11039;50.028;19.938;2023-04-03T11:22:53;2.40;;;1.17;;
21754;SDS011;11039;50.028;19.938;2023-04-03T11:25:24;1.73;;;1.17;;
21754;SDS011;11039;50.028;19.938;2023-04-03T11:27:53;2.25;;;1.15;;
21754;SDS011;11039;50.028;19.938;2023-04-03T11:30:32;2.90;;;1.20;;
21754;SDS011;11039;50.028;19.938;2023-04-03T11:35:37;1.45;;;1.05;;
21754;SDS011;11039;50.028;19.938;2023-04-03T11:38:10;1.15;;;0.80;;
21754;SDS011;11039;50.028;19.938;2023-04-03T11:40:39;2.08;;;1.10;;
21754;SDS011;11039;50.028;19.938;2023-04-03T11:43:20;2.60;;;1.20;;
21754;SDS011;11039;50.028;19.938;2023-04-03T11:45:56;1.80;;;1.08;;
21754;SDS011;11039;50.028;19.938;2023-04-03T11:50:59;2.13;;;1.10;;
21754;SDS011;11039;50.028;19.938;2023-04-03T11:53:32;3.63;;;1.17;;
21754;SDS011;11039;50.028;19.938;2023-04-03T12:01:43;2.50;;;1.10;;
21754;SDS011;11039;50.028;19.938;2023-04-03T12:04:10;2.42;;;1.38;;
21754;SDS011;11039;50.028;19.938;2023-04-03T12:09:21;1.55;;;0.80;;
21754;SDS011;11039;50.028;19.938;2023-04-03T12:11:48;2.63;;;1.55;;
21754;SDS011;11039;50.028;19.938;2023-04-03T12:14:15;1.77;;;1.30;;
21754;SDS011;11039;50.028;19.938;2023-04-03T12:16:42;3.33;;;1.67;;
21754;SDS011;11039;50.028;19.938;2023-04-03T12:31:54;7.15;;;2.47;;
21754;SDS011;11039;50.028;19.938;2023-04-03T12:34:27;3.05;;;2.05;;
21754;SDS011;11039;50.028;19.938;2023-04-03T12:37:15;4.28;;;2.20;;
21754;SDS011;11039;50.028;19.938;2023-04-03T12:42:48;3.53;;;1.95;;
21754;SDS011;11039;50.028;19.938;2023-04-03T12:45:21;2.80;;;1.58;;
21754;SDS011;11039;50.028;19.938;2023-04-03T12:47:51;2.70;;;1.80;;
21754;SDS011;11039;50.028;19.938;2023-04-03T12:50:24;2.88;;;1.60;;
21754;SDS011;11039;50.028;19.938;2023-04-03T12:53:04;3.03;;;1.83;;
21754;SDS011;11039;50.028;19.938;2023-04-03T12:55:31;2.30;;;1.55;;
21754;SDS011;11039;50.028;19.938;2023-04-03T12:57:57;2.72;;;1.60;;
21754;SDS011;11039;50.028;19.938;2023-04-03T13:00:28;2.53;;;1.45;;
21754;SDS011;11039;50.028;19.938;2023-04-03T13:02:54;1.98;;;1.33;;
21754;SDS011;11039;50.028;19.938;2023-04-03T13:05:21;2.22;;;1.38;;
21754;SDS011;11039;50.028;19.938;2023-04-03T13:07:48;2.30;;;1.30;;
21754;SDS011;11039;50.028;19.938;2023-04-03T13:10:16;2.00;;;1.17;;
21754;SDS011;11039;50.028;19.938;2023-04-03T13:15:25;3.00;;;1.20;;
21754;SDS011;11039;50.028;19.938;2023-04-03T13:17:52;2.88;;;1.40;;
21754;SDS011;11039;50.028;19.938;2023-04-03T13:20:20;2.83;;;1.52;;
21754;SDS011;11039;50.028;19.938;2023-04-03T13:22:55;4.45;;;1.40;;
21754;SDS011;11039;50.028;19.938;2023-04-03T13:25:22;2.70;;;1.30;;
21754;SDS011;11039;50.028;19.938;2023-04-03T13:27:49;1.48;;;1.10;;
21754;SDS011;11039;50.028;19.938;2023-04-03T13:30:23;2.88;;;1.27;;
21754;SDS011;11039;50.028;19.938;2023-04-03T13:32:50;2.85;;;1.40;;
21754;SDS011;11039;50.028;19.938;2023-04-03T13:40:50;4.38;;;1.50;;
21754;SDS011;11039;50.028;19.938;2023-04-03T13:43:24;2.47;;;1.40;;
21754;SDS011;11039;50.028;19.938;2023-04-03T13:45:58;2.15;;;1.30;;
21754;SDS011;11039;50.028;19.938;2023-04-03T13:48:24;2.90;;;1.30;;
21754;SDS011;11039;50.028;19.938;2023-04-03T13:50:57;2.25;;;1.23;;
21754;SDS011;11039;50.028;19.938;2023-04-03T13:53:24;2.30;;;1.40;;
21754;SDS011;11039;50.028;19.938;2023-04-03T13:56:09;2.35;;;1.30;;
21754;SDS011;11039;50.028;19.938;2023-04-03T13:58:51;2.42;;;1.30;;
21754;SDS011;11039;50.028;19.938;2023-04-03T14:01:19;2.53;;;1.30;;
21754;SDS011;11039;50.028;19.938;2023-04-03T14:03:55;2.38;;;1.33;;
21754;SDS011;11039;50.028;19.938;2023-04-03T14:06:21;2.92;;;1.45;;
21754;SDS011;11039;50.028;19.938;2023-04-03T14:08:47;2.65;;;1.25;;
21754;SDS011;11039;50.028;19.938;2023-04-03T14:11:21;2.25;;;1.05;;
21754;SDS011;11039;50.028;19.938;2023-04-03T14:13:48;2.65;;;1.27;;
21754;SDS011;11039;50.028;19.938;2023-04-03T14:16:17;2.65;;;1.27;;
21754;SDS011;11039;50.028;19.938;2023-04-03T14:18:44;3.05;;;1.27;;
21754;SDS011;11039;50.028;19.938;2023-04-03T14:21:11;2.58;;;1.35;;
21754;SDS011;11039;50.028;19.938;2023-04-03T14:23:38;2.60;;;1.58;;
21754;SDS011;11039;50.028;19.938;2023-04-03T14:26:08;2.78;;;1.40;;
21754;SDS011;11039;50.028;19.938;2023-04-03T14:28:34;2.45;;;1.40;;
21754;SDS011;11039;50.028;19.938;2023-04-03T14:31:00;3.42;;;1.50;;
21754;SDS011;11039;50.028;19.938;2023-04-03T14:33:26;2.83;;;1.27;;
21754;SDS011;11039;50.028;19.938;2023-04-03T14:35:56;4.28;;;1.60;;
21754;SDS011;11039;50.028;19.938;2023-04-03T14:38:24;3.35;;;1.55;;
21754;SDS011;11039;50.028;19.938;2023-04-03T14:40:51;3.25;;;1.45;;
21754;SDS011;11039;50.028;19.938;2023-04-03T14:43:17;4.40;;;1.98;;
21754;SDS011;11039;50.028;19.938;2023-04-03T14:45:43;3.65;;;1.52;;
21754;SDS011;11039;50.028;19.938;2023-04-03T14:48:13;3.85;;;1.45;;
21754;SDS011;11039;50.028;19.938;2023-04-03T14:50:41;4.80;;;1.85;;
21754;SDS011;11039;50.028;19.938;2023-04-03T14:53:09;3.22;;;1.55;;
21754;SDS011;11039;50.028;19.938;2023-04-03T14:55:36;4.63;;;1.85;;
21754;SDS011;11039;50.028;19.938;2023-04-03T14:58:02;3.03;;;1.40;;
21754;SDS011;11039;50.028;19.938;2023-04-03T15:00:28;3.53;;;1.50;;
21754;SDS011;11039;50.028;19.938;2023-04-03T15:02:55;3.67;;;1.30;;
21754;SDS011;11039;50.028;19.938;2023-04-03T15:05:21;4.28;;;1.55;;
21754;SDS011;11039;50.028;19.938;2023-04-03T15:07:48;4.90;;;1.50;;
21754;SDS011;11039;50.028;19.938;2023-04-03T15:10:19;3.28;;;1.48;;
21754;SDS011;11039;50.028;19.938;2023-04-03T15:12:46;2.42;;;1.45;;
21754;SDS011;11039;50.028;19.938;2023-04-03T15:15:14;3.88;;;1.60;;
21754;SDS011;11039;50.028;19.938;2023-04-03T15:17:40;2.33;;;1.40;;
21754;SDS011;11039;50.028;19.938;2023-04-03T15:20:14;6.38;;;1.83;;
21754;SDS011;11039;50.028;19.938;2023-04-03T15:22:40;4.40;;;1.58;;
21754;SDS011;11039;50.028;19.938;2023-04-03T15:25:06;5.07;;;1.98;;
21754;SDS011;11039;50.028;19.938;2023-04-03T15:27:33;6.22;;;1.70;;
21754;SDS011;11039;50.028;19.938;2023-04-03T15:29:59;8.52;;;2.15;;
21754;SDS011;11039;50.028;19.938;2023-04-03T15:32:25;7.55;;;2.22;;
21754;SDS011;11039;50.028;19.938;2023-04-03T15:34:51;5.78;;;2.05;;
21754;SDS011;11039;50.028;19.938;2023-04-03T15:37:17;5.10;;;2.00;;
21754;SDS011;11039;50.028;19.938;2023-04-03T15:39:43;6.60;;;1.85;;
21754;SDS011;11039;50.028;19.938;2023-04-03T15:42:09;6.45;;;2.10;;
21754;SDS011;11039;50.028;19.938;2023-04-03T15:44:37;9.30;;;2.22;;
21754;SDS011;11039;50.028;19.938;2023-04-03T15:47:03;10.38;;;2.20;;
21754;SDS011;11039;50.028;19.938;2023-04-03T15:49:30;13.38;;;2.50;;
21754;SDS011;11039;50.028;19.938;2023-04-03T15:51:56;8.98;;;2.60;;
21754;SDS011;11039;50.028;19.938;2023-04-03T15:54:22;7.95;;;2.22;;
21754;SDS011;11039;50.028;19.938;2023-04-03T15:56:49;7.25;;;1.80;;
21754;SDS011;11039;50.028;19.938;2023-04-03T15:59:15;7.30;;;1.92;;
21754;SDS011;11039;50.028;19.938;2023-04-03T16:01:41;7.25;;;1.73;;
21754;SDS011;11039;50.028;19.938;2023-04-03T16:04:08;7.57;;;2.33;;
21754;SDS011;11039;50.028;19.938;2023-04-03T16:06:35;7.85;;;2.00;;